createdAt,value
2018-05-12T00:00:47.015Z,11.50
2018-05-12T00:03:15.244Z,10.93
2018-05-12T00:05:42.699Z,11.80
2018-05-12T00:08:10.204Z,11.63
2018-05-12T00:10:38.440Z,13.10
2018-05-12T00:13:05.900Z,11.03
2018-05-12T00:15:33.363Z,11.00
2018-05-12T00:18:00.817Z,10.90
2018-05-12T00:20:28.340Z,11.87
2018-05-12T00:22:55.835Z,10.53
2018-05-12T00:25:23.304Z,10.80
2018-05-12T00:27:50.751Z,10.90
2018-05-12T00:30:18.217Z,10.77
2018-05-12T00:32:45.701Z,11.83
2018-05-12T00:35:13.963Z,12.90
2018-05-12T00:37:42.185Z,11.60
2018-05-12T00:40:09.658Z,11.47
2018-05-12T00:42:37.212Z,11.10
2018-05-12T00:45:04.667Z,11.40
2018-05-12T00:47:32.149Z,9.93
2018-05-12T00:49:59.670Z,9.40
2018-05-12T00:52:27.211Z,9.07
2018-05-12T00:54:54.676Z,9.77
2018-05-12T00:57:22.171Z,10.40
2018-05-12T00:59:50.680Z,10.03
2018-05-12T01:02:18.226Z,9.90
2018-05-12T01:04:45.700Z,9.83
2018-05-12T01:07:13.152Z,9.30
2018-05-12T01:09:40.590Z,9.47
2018-05-12T01:12:08.040Z,9.67
2018-05-12T01:14:35.502Z,9.17
2018-05-12T01:17:02.971Z,9.90
2018-05-12T01:19:30.424Z,10.70
2018-05-12T01:21:57.921Z,10.20
2018-05-12T01:24:26.161Z,10.27
2018-05-12T01:26:53.617Z,10.40
2018-05-12T01:29:21.060Z,9.70
2018-05-12T01:31:48.523Z,10.37
2018-05-12T01:34:15.979Z,9.90
2018-05-12T01:36:43.477Z,11.13
2018-05-12T01:39:11.696Z,11.50
2018-05-12T01:41:39.144Z,10.00
2018-05-12T01:44:06.589Z,9.90
2018-05-12T01:46:34.041Z,10.37
2018-05-12T01:49:01.498Z,11.30
2018-05-12T01:51:28.952Z,10.10
2018-05-12T01:53:56.399Z,11.97
2018-05-12T01:56:24.621Z,11.57
2018-05-12T01:58:52.058Z,10.90
2018-05-12T02:01:19.527Z,11.37
2018-05-12T02:03:46.973Z,10.77
2018-05-12T02:06:14.425Z,10.30
2018-05-12T02:08:41.870Z,10.20
2018-05-12T02:11:09.308Z,11.20
2018-05-12T02:13:37.547Z,10.67
2018-05-12T02:16:04.999Z,11.97
2018-05-12T02:18:32.461Z,10.37
2018-05-12T02:20:59.917Z,10.40
2018-05-12T02:23:27.376Z,10.90
2018-05-12T02:25:55.591Z,10.50
2018-05-12T02:28:23.817Z,10.97
2018-05-12T02:30:51.299Z,10.40
2018-05-12T02:33:18.765Z,12.03
2018-05-12T02:35:46.202Z,9.27
2018-05-12T02:38:13.666Z,11.67
2018-05-12T02:40:41.131Z,11.73
2018-05-12T02:43:08.592Z,10.87
2018-05-12T02:45:36.043Z,10.80
2018-05-12T02:48:03.513Z,10.50
2018-05-12T02:50:31.009Z,11.47
2018-05-12T02:52:58.483Z,10.83
2018-05-12T02:55:25.943Z,11.23
2018-05-12T02:57:53.394Z,13.00
2018-05-12T03:00:20.855Z,12.07
2018-05-12T03:02:48.334Z,11.63
2018-05-12T03:05:15.781Z,10.67
2018-05-12T03:07:43.239Z,11.83
2018-05-12T03:10:10.684Z,11.33
2018-05-12T03:12:38.156Z,11.30
2018-05-12T03:15:05.595Z,12.07
2018-05-12T03:17:33.063Z,11.77
2018-05-12T03:20:00.536Z,11.73
2018-05-12T03:22:27.989Z,11.80
2018-05-12T03:24:55.459Z,11.30
2018-05-12T03:27:23.660Z,12.63
2018-05-12T03:29:51.890Z,11.93
2018-05-12T03:32:19.339Z,11.77
2018-05-12T03:34:46.809Z,11.70
2018-05-12T03:37:14.251Z,11.50
2018-05-12T03:39:41.744Z,11.50
2018-05-12T03:42:09.200Z,10.90
2018-05-12T03:44:36.657Z,11.60
2018-05-12T03:47:04.111Z,11.80
2018-05-12T03:49:31.573Z,11.20
2018-05-12T03:51:59.022Z,11.80
2018-05-12T03:54:26.478Z,10.70
2018-05-12T03:56:53.970Z,12.00
2018-05-12T03:59:21.393Z,11.20
2018-05-12T04:01:48.855Z,11.60
2018-05-12T04:04:28.255Z,12.20
2018-05-12T04:07:07.684Z,11.37
2018-05-12T04:09:46.932Z,11.80
2018-05-12T04:12:27.211Z,11.90
2018-05-12T04:14:54.672Z,12.13
2018-05-12T04:17:22.131Z,9.60
2018-05-12T04:19:49.579Z,11.03
2018-05-12T04:22:17.032Z,12.50
2018-05-12T04:24:44.500Z,12.87
2018-05-12T04:27:11.966Z,12.33
2018-05-12T04:29:39.427Z,12.80
2018-05-12T04:32:06.874Z,13.33
2018-05-12T04:34:34.372Z,11.80
2018-05-12T04:37:02.598Z,12.57
2018-05-12T04:39:30.068Z,12.00
2018-05-12T04:41:57.520Z,11.67
2018-05-12T04:44:25.000Z,11.37
2018-05-12T04:46:52.442Z,11.87
2018-05-12T04:49:19.908Z,11.50
2018-05-12T04:51:47.364Z,11.13
2018-05-12T04:54:14.937Z,11.90
2018-05-12T04:56:42.260Z,12.60
2018-05-12T04:59:09.712Z,13.50
2018-05-12T05:01:37.151Z,11.70
2018-05-12T05:04:04.601Z,11.23
2018-05-12T05:06:32.070Z,12.60
2018-05-12T05:08:59.507Z,11.53
2018-05-12T05:11:26.964Z,12.10
2018-05-12T05:13:54.423Z,12.80
2018-05-12T05:16:21.887Z,13.07
2018-05-12T05:18:49.332Z,13.37
2018-05-12T05:21:16.819Z,14.10
2018-05-12T05:23:44.246Z,13.73
2018-05-12T05:26:11.713Z,13.70
2018-05-12T05:28:39.156Z,14.37
2018-05-12T05:31:07.379Z,14.37
2018-05-12T05:33:34.867Z,15.20
2018-05-12T05:36:02.358Z,16.57
2018-05-12T05:38:29.771Z,15.70
2018-05-12T05:40:57.225Z,16.10
2018-05-12T05:43:24.683Z,17.53
2018-05-12T05:45:52.140Z,16.70
2018-05-12T05:48:19.586Z,16.77
2018-05-12T05:50:47.034Z,18.17
2018-05-12T05:53:14.492Z,16.87
2018-05-12T05:55:41.941Z,17.50
2018-05-12T05:58:09.408Z,16.90
2018-05-12T06:00:36.860Z,18.07
2018-05-12T06:03:04.338Z,18.60
2018-05-12T06:05:31.788Z,17.83
2018-05-12T06:07:59.234Z,18.60
2018-05-12T06:10:26.696Z,17.73
2018-05-12T06:12:54.150Z,18.03
2018-05-12T06:15:21.608Z,18.63
2018-05-12T06:17:49.071Z,18.60
2018-05-12T06:20:16.514Z,18.67
2018-05-12T06:22:43.976Z,16.93
2018-05-12T06:25:11.425Z,18.50
2018-05-12T06:27:38.896Z,18.90
2018-05-12T06:30:06.341Z,17.93
2018-05-12T06:32:33.799Z,18.03
2018-05-12T06:35:01.253Z,16.97
2018-05-12T06:37:28.728Z,19.10
2018-05-12T06:39:56.175Z,18.70
2018-05-12T06:42:23.630Z,19.40
2018-05-12T06:44:51.081Z,19.03
2018-05-12T06:47:18.543Z,19.53
2018-05-12T06:49:46.000Z,19.90
2018-05-12T06:52:13.458Z,19.20
2018-05-12T06:54:40.903Z,21.63
2018-05-12T06:57:08.354Z,19.57
2018-05-12T06:59:35.801Z,19.30
2018-05-12T07:02:03.272Z,18.87
2018-05-12T07:04:30.745Z,21.73
2018-05-12T07:06:58.203Z,20.53
2018-05-12T07:09:25.855Z,19.50
2018-05-12T07:11:53.316Z,17.30
2018-05-12T07:14:20.768Z,18.20
2018-05-12T07:16:48.212Z,18.07
2018-05-12T07:19:15.667Z,18.37
2018-05-12T07:21:43.112Z,18.53
2018-05-12T07:24:11.359Z,19.33
2018-05-12T07:26:38.820Z,16.20
2018-05-12T07:29:06.274Z,17.17
2018-05-12T07:31:33.727Z,17.87
2018-05-12T07:34:02.427Z,15.50
2018-05-12T07:36:29.884Z,17.00
2018-05-12T07:38:57.382Z,17.60
2018-05-12T07:41:24.812Z,16.97
2018-05-12T07:43:53.047Z,15.13
2018-05-12T07:46:20.490Z,16.40
2018-05-12T07:48:47.944Z,17.77
2018-05-12T07:51:15.395Z,17.20
2018-05-12T07:53:42.858Z,16.33
2018-05-12T07:56:10.304Z,15.97
2018-05-12T07:58:37.755Z,16.83
2018-05-12T08:01:05.221Z,17.77
2018-05-12T08:03:32.722Z,16.50
2018-05-12T08:06:00.125Z,17.37
2018-05-12T08:08:27.594Z,17.87
2018-05-12T08:10:55.033Z,17.80
2018-05-12T08:13:22.508Z,16.23
2018-05-12T08:15:49.972Z,16.80
2018-05-12T08:18:17.425Z,18.07
2018-05-12T08:20:44.875Z,17.10
2018-05-12T08:23:12.322Z,17.50
2018-05-12T08:25:39.824Z,17.43
2018-05-12T08:28:07.276Z,17.83
2018-05-12T08:30:34.741Z,15.80
2018-05-12T08:33:02.196Z,18.20
2018-05-12T08:35:29.662Z,17.40
2018-05-12T08:37:57.131Z,18.07
2018-05-12T08:40:24.650Z,18.17
2018-05-12T08:42:52.048Z,16.57
2018-05-12T08:45:19.513Z,17.10
2018-05-12T08:47:46.962Z,15.93
2018-05-12T08:50:14.419Z,19.60
2018-05-12T08:52:41.881Z,16.20
2018-05-12T08:55:09.347Z,17.83
2018-05-12T08:57:37.555Z,16.00
2018-05-12T09:00:05.013Z,14.40
2018-05-12T09:02:32.466Z,16.87
2018-05-12T09:04:59.919Z,17.73
2018-05-12T09:07:27.410Z,14.40
2018-05-12T09:09:54.881Z,14.33
2018-05-12T09:12:22.359Z,13.07
2018-05-12T09:14:49.816Z,15.40
2018-05-12T09:17:17.274Z,14.90
2018-05-12T09:19:44.779Z,16.80
2018-05-12T09:22:12.233Z,15.77
2018-05-12T09:24:39.682Z,15.70
2018-05-12T09:27:07.139Z,14.77
2018-05-12T09:29:34.604Z,15.87
2018-05-12T09:32:02.051Z,16.57
2018-05-12T09:34:29.519Z,16.50
2018-05-12T09:36:56.968Z,16.70
2018-05-12T09:39:24.418Z,17.57
2018-05-12T09:41:51.864Z,17.80
2018-05-12T09:44:20.105Z,16.90
2018-05-12T09:46:49.426Z,16.77
2018-05-12T09:49:17.058Z,18.10
2018-05-12T09:51:44.510Z,15.57
2018-05-12T09:54:12.059Z,18.80
2018-05-12T09:56:39.593Z,19.10
2018-05-12T09:59:07.087Z,14.87
2018-05-12T10:01:34.550Z,15.40
2018-05-12T10:04:02.005Z,15.70
2018-05-12T10:06:29.593Z,15.40
2018-05-12T10:08:57.292Z,14.17
2018-05-12T10:11:24.752Z,15.07
2018-05-12T10:13:52.198Z,15.93
2018-05-12T10:16:20.695Z,16.70
2018-05-12T10:18:48.177Z,19.80
2018-05-12T10:21:15.891Z,17.47
2018-05-12T10:23:43.407Z,17.80
2018-05-12T10:26:10.971Z,14.77
2018-05-12T10:28:38.336Z,12.80
2018-05-12T10:31:05.795Z,12.43
2018-05-12T10:33:33.246Z,16.27
2018-05-12T10:36:00.711Z,15.17
2018-05-12T10:38:28.164Z,12.80
2018-05-12T10:40:55.650Z,10.60
2018-05-12T10:43:23.866Z,12.20
2018-05-12T10:45:51.319Z,12.60
2018-05-12T10:48:18.764Z,13.83
2018-05-12T10:50:46.295Z,18.57
2018-05-12T10:53:13.757Z,16.13
2018-05-12T10:55:41.978Z,16.60
2018-05-12T10:58:09.426Z,16.60
2018-05-12T11:00:36.909Z,16.57
2018-05-12T11:03:04.364Z,15.37
2018-05-12T11:05:31.851Z,15.87
2018-05-12T11:07:59.299Z,13.57
2018-05-12T11:10:26.760Z,16.70
2018-05-12T11:12:54.215Z,15.73
2018-05-12T11:15:21.658Z,14.70
2018-05-12T11:17:49.128Z,15.53
2018-05-12T11:20:16.606Z,12.27
2018-05-12T11:22:44.047Z,11.90
2018-05-12T11:25:11.504Z,15.13
2018-05-12T11:27:38.955Z,15.10
2018-05-12T11:30:06.422Z,15.30
2018-05-12T11:32:33.879Z,15.60
2018-05-12T11:35:01.338Z,12.07
2018-05-12T11:37:28.803Z,12.80
2018-05-12T11:39:57.012Z,12.87
2018-05-12T11:42:24.478Z,14.20
2018-05-12T11:44:51.942Z,12.07
2018-05-12T11:47:19.407Z,15.83
2018-05-12T11:49:46.907Z,12.37
2018-05-12T11:52:15.137Z,12.00
2018-05-12T11:54:42.613Z,12.93
2018-05-12T11:57:10.074Z,12.47
2018-05-12T11:59:37.531Z,12.57
2018-05-12T12:02:04.988Z,12.27
2018-05-12T12:04:32.435Z,14.97
2018-05-12T12:06:59.901Z,13.97
2018-05-12T12:09:27.360Z,13.57
2018-05-12T12:11:54.813Z,12.57
2018-05-12T12:14:22.274Z,10.73
2018-05-12T12:16:49.734Z,10.97
2018-05-12T12:19:17.184Z,12.17
2018-05-12T12:21:44.647Z,11.07
2018-05-12T12:24:12.131Z,9.73
2018-05-12T12:26:40.355Z,10.50
2018-05-12T12:29:07.813Z,11.40
2018-05-12T12:31:35.278Z,10.83
2018-05-12T12:34:02.735Z,10.43
2018-05-12T12:36:30.191Z,10.83
2018-05-12T12:38:57.627Z,8.53
2018-05-12T12:41:25.087Z,9.93
2018-05-12T12:43:52.617Z,8.80
2018-05-12T12:46:20.017Z,8.10
2018-05-12T12:48:47.472Z,8.90
2018-05-12T12:51:14.916Z,9.07
2018-05-12T12:53:42.377Z,8.20
2018-05-12T12:56:09.843Z,8.40
2018-05-12T12:58:37.291Z,8.70
2018-05-12T13:01:04.752Z,8.00
2018-05-12T13:03:32.209Z,8.23
2018-05-12T13:05:59.662Z,8.13
2018-05-12T13:08:27.123Z,7.87
2018-05-12T13:10:54.571Z,8.57
2018-05-12T13:13:22.016Z,8.23
2018-05-12T13:15:49.462Z,7.70
2018-05-12T13:18:17.676Z,7.30
2018-05-12T13:20:45.135Z,7.23
2018-05-12T13:23:12.596Z,7.30
2018-05-12T13:25:40.064Z,7.70
2018-05-12T13:28:07.539Z,7.97
2018-05-12T13:30:34.988Z,7.37
2018-05-12T13:33:02.433Z,6.87
2018-05-12T13:35:29.893Z,7.30
2018-05-12T13:37:57.347Z,7.90
2018-05-12T13:40:24.858Z,6.80
2018-05-12T13:42:52.266Z,7.10
2018-05-12T13:45:19.725Z,6.70
2018-05-12T13:47:47.174Z,6.60
2018-05-12T13:50:15.386Z,7.00
2018-05-12T13:52:42.838Z,6.50
2018-05-12T13:55:10.271Z,8.80
2018-05-12T13:57:37.736Z,7.97
2018-05-12T14:00:05.195Z,6.73
2018-05-12T14:02:32.639Z,7.10
2018-05-12T14:05:00.091Z,7.10
2018-05-12T14:07:27.622Z,6.50
2018-05-12T14:09:54.993Z,5.57
2018-05-12T14:12:22.460Z,5.83
2018-05-12T14:14:49.914Z,6.23
2018-05-12T14:17:17.367Z,6.20
2018-05-12T14:19:44.830Z,6.70
2018-05-12T14:22:12.271Z,7.40
2018-05-12T14:24:39.740Z,7.63
2018-05-12T14:27:07.195Z,9.67
2018-05-12T14:29:34.644Z,7.10
2018-05-12T14:32:02.099Z,7.87
2018-05-12T14:34:29.564Z,6.90
2018-05-12T14:36:57.000Z,6.33
2018-05-12T14:39:24.459Z,7.50
2018-05-12T14:41:51.901Z,6.80
2018-05-12T14:44:20.127Z,8.67
2018-05-12T14:46:47.574Z,8.27
2018-05-12T14:49:15.035Z,8.10
2018-05-12T14:51:42.488Z,9.50
2018-05-12T14:54:09.943Z,9.70
2018-05-12T14:56:37.431Z,10.10
2018-05-12T14:59:04.903Z,10.87
2018-05-12T15:01:32.339Z,8.97
2018-05-12T15:03:59.803Z,12.47
2018-05-12T15:06:27.247Z,12.37
2018-05-12T15:08:54.719Z,12.10
2018-05-12T15:11:22.157Z,11.10
2018-05-12T15:13:49.624Z,12.13
2018-05-12T15:16:17.072Z,10.40
2018-05-12T15:18:44.540Z,9.77
2018-05-12T15:21:12.073Z,10.43
2018-05-12T15:23:39.509Z,9.10
2018-05-12T15:26:06.963Z,9.90
2018-05-12T15:28:34.424Z,8.87
2018-05-12T15:31:01.883Z,10.23
2018-05-12T15:33:29.338Z,8.77
2018-05-12T15:35:56.792Z,8.63
2018-05-12T15:38:24.238Z,10.73
2018-05-12T15:40:52.471Z,8.50
2018-05-12T15:43:19.923Z,11.50
2018-05-12T15:45:47.384Z,9.20
2018-05-12T15:48:14.831Z,10.60
2018-05-12T15:50:43.058Z,9.00
2018-05-12T15:53:11.267Z,9.33
2018-05-12T15:55:38.707Z,9.43
2018-05-12T15:58:06.151Z,8.43
2018-05-12T16:00:34.373Z,9.37
2018-05-12T16:03:01.823Z,8.67
2018-05-12T16:05:29.280Z,8.80
2018-05-12T16:07:56.707Z,8.93
2018-05-12T16:10:24.178Z,9.33
2018-05-12T16:12:51.643Z,9.33
2018-05-12T16:15:19.113Z,8.70
2018-05-12T16:17:46.554Z,8.50
2018-05-12T16:20:14.022Z,9.90
2018-05-12T16:22:41.476Z,10.37
2018-05-12T16:25:08.954Z,9.60
2018-05-12T16:27:36.384Z,11.83
2018-05-12T16:30:03.847Z,10.03
2018-05-12T16:32:31.296Z,11.40
2018-05-12T16:34:58.768Z,10.33
2018-05-12T16:37:26.255Z,10.97
2018-05-12T16:39:53.670Z,12.53
2018-05-12T16:42:21.125Z,12.60
2018-05-12T16:44:48.575Z,12.67
2018-05-12T16:47:16.036Z,11.70
2018-05-12T16:49:43.507Z,12.03
2018-05-12T16:52:10.959Z,11.90
2018-05-12T16:54:38.403Z,13.00
2018-05-12T16:57:05.854Z,15.93
2018-05-12T16:59:33.314Z,13.00
2018-05-12T17:02:00.775Z,15.03
2018-05-12T17:04:28.247Z,16.20
2018-05-12T17:06:55.695Z,18.07
2018-05-12T17:09:23.149Z,16.00
2018-05-12T17:11:50.612Z,15.63
2018-05-12T17:14:18.060Z,13.73
2018-05-12T17:16:45.523Z,14.23
2018-05-12T17:19:12.972Z,13.30
2018-05-12T17:21:41.193Z,13.80
2018-05-12T17:24:08.637Z,14.10
2018-05-12T17:26:36.107Z,12.90
2018-05-12T17:29:03.550Z,13.57
2018-05-12T17:31:31.015Z,13.40
2018-05-12T17:33:58.467Z,13.27
2018-05-12T17:36:25.923Z,13.90
2018-05-12T17:38:53.368Z,14.07
2018-05-12T17:41:20.819Z,12.63
2018-05-12T17:43:48.270Z,13.60
2018-05-12T17:46:15.735Z,13.97
2018-05-12T17:48:43.181Z,12.90
2018-05-12T17:51:10.642Z,11.57
2018-05-12T17:53:38.091Z,13.50
2018-05-12T17:56:05.551Z,13.23
2018-05-12T17:58:32.991Z,12.60
2018-05-12T18:01:01.223Z,11.10
2018-05-12T18:03:28.687Z,12.20
2018-05-12T18:05:56.152Z,13.80
2018-05-12T18:08:23.602Z,13.50
2018-05-12T18:10:51.062Z,13.50
2018-05-12T18:13:18.519Z,13.93
2018-05-12T18:15:45.982Z,13.13
2018-05-12T18:18:13.439Z,12.33
2018-05-12T18:20:57.170Z,13.57
2018-05-12T18:23:24.648Z,12.90
2018-05-12T18:25:52.083Z,15.40
2018-05-12T18:28:19.601Z,18.47
2018-05-12T18:30:47.059Z,16.10
2018-05-12T18:35:49.051Z,16.07
2018-05-12T18:38:16.513Z,16.83
2018-05-12T18:40:43.960Z,14.47
2018-05-12T18:43:11.415Z,14.83
2018-05-12T18:45:38.872Z,15.90
2018-05-12T18:48:06.336Z,14.90
2018-05-12T18:50:33.863Z,18.37
2018-05-12T18:53:01.269Z,16.57
2018-05-12T18:55:28.716Z,14.70
2018-05-12T18:57:56.172Z,16.27
2018-05-12T19:00:23.642Z,14.40
2018-05-12T19:02:51.104Z,15.20
2018-05-12T19:05:18.559Z,15.60
2018-05-12T19:07:46.018Z,15.27
2018-05-12T19:10:13.468Z,15.00
2018-05-12T19:12:40.946Z,14.23
2018-05-12T19:15:08.419Z,16.00
2018-05-12T19:17:35.879Z,15.90
2018-05-12T19:20:03.326Z,15.90
2018-05-12T19:22:30.797Z,14.87
2018-05-12T19:24:58.262Z,14.60
2018-05-12T19:27:26.490Z,15.67
2018-05-12T19:32:27.883Z,15.47
2018-05-12T19:34:55.341Z,15.20
2018-05-12T19:37:22.800Z,15.60
2018-05-12T19:39:50.270Z,14.83
2018-05-12T19:42:18.517Z,15.70
2018-05-12T19:44:46.726Z,15.60
2018-05-12T19:47:14.950Z,16.20
2018-05-12T19:49:42.413Z,16.30
2018-05-12T19:52:09.874Z,14.90
2018-05-12T19:54:37.333Z,15.27
2018-05-12T19:57:04.788Z,15.00
2018-05-12T19:59:32.232Z,16.00
2018-05-12T20:01:59.687Z,15.40
2018-05-12T20:04:27.163Z,14.93
2018-05-12T20:06:54.672Z,15.53
2018-05-12T20:09:22.192Z,15.43
2018-05-12T20:11:49.641Z,16.63
2018-05-12T20:14:17.097Z,18.53
2018-05-12T20:16:44.547Z,17.50
2018-05-12T20:19:12.774Z,16.73
2018-05-12T20:21:40.999Z,17.33
2018-05-12T20:24:08.463Z,17.70
2018-05-12T20:26:35.933Z,14.43
2018-05-12T20:29:03.401Z,17.47
2018-05-12T20:31:30.851Z,15.50
2018-05-12T20:33:58.327Z,14.33
2018-05-12T20:36:25.775Z,16.87
2018-05-12T20:38:53.284Z,17.43
2018-05-12T20:41:21.467Z,16.23
2018-05-12T20:43:48.955Z,16.97
2018-05-12T20:46:16.415Z,17.80
2018-05-12T20:48:43.876Z,15.60
2018-05-12T20:51:11.336Z,16.47
2018-05-12T20:53:38.788Z,16.90
2018-05-12T20:56:06.231Z,15.87
2018-05-12T21:01:07.666Z,16.63
2018-05-12T21:03:35.146Z,17.33
2018-05-12T21:06:02.603Z,14.80
2018-05-12T21:08:30.064Z,16.00
2018-05-12T21:10:57.529Z,16.40
2018-05-12T21:13:24.976Z,16.50
2018-05-12T21:15:52.431Z,16.60
2018-05-12T21:18:19.884Z,17.87
2018-05-12T21:20:47.339Z,16.80
2018-05-12T21:23:14.792Z,16.00
2018-05-12T21:25:42.255Z,17.60
2018-05-12T21:28:09.707Z,15.93
2018-05-12T21:30:37.198Z,15.40
2018-05-12T21:33:04.655Z,17.13
2018-05-12T21:35:32.112Z,17.50
2018-05-12T21:37:59.627Z,19.00
2018-05-12T21:40:27.024Z,17.90
2018-05-12T21:42:54.480Z,18.20
2018-05-12T21:45:21.940Z,18.73
2018-05-12T21:47:49.394Z,22.37
2018-05-12T21:50:16.880Z,21.20
2018-05-12T21:52:44.326Z,17.63
2018-05-12T21:55:11.774Z,16.90
2018-05-12T21:57:39.230Z,18.90
2018-05-12T22:00:06.687Z,18.00
2018-05-12T22:02:34.139Z,18.73
2018-05-12T22:05:01.591Z,19.93
2018-05-12T22:07:29.041Z,17.90
2018-05-12T22:09:56.488Z,18.30
2018-05-12T22:12:23.943Z,17.13
2018-05-12T22:14:51.399Z,17.57
2018-05-12T22:17:18.869Z,16.80
2018-05-12T22:19:47.087Z,16.77
2018-05-12T22:22:14.559Z,13.83
2018-05-12T22:24:42.017Z,12.40
2018-05-12T22:27:10.248Z,11.70
2018-05-12T22:29:37.724Z,12.50
2018-05-12T22:32:05.180Z,11.03
2018-05-12T22:34:32.639Z,11.23
2018-05-12T22:37:00.104Z,10.80
2018-05-12T22:39:27.548Z,12.47
2018-05-12T22:41:54.999Z,13.50
2018-05-12T22:44:22.446Z,12.20
2018-05-12T22:46:49.921Z,9.93
2018-05-12T22:49:17.363Z,8.80
2018-05-12T22:54:18.820Z,6.93
2018-05-12T22:56:46.274Z,6.47
2018-05-12T22:59:13.733Z,5.30
2018-05-12T23:01:41.202Z,6.10
2018-05-12T23:04:08.745Z,4.53
2018-05-12T23:06:36.103Z,3.80
2018-05-12T23:09:03.560Z,3.00
2018-05-12T23:11:31.019Z,2.73
2018-05-12T23:13:58.462Z,2.97
2018-05-12T23:16:25.914Z,2.70
2018-05-12T23:18:53.367Z,2.60
2018-05-12T23:21:20.815Z,2.90
2018-05-12T23:23:48.254Z,2.27
2018-05-12T23:26:16.459Z,2.20
2018-05-12T23:28:43.914Z,2.20
2018-05-12T23:31:11.375Z,2.50
2018-05-12T23:33:38.838Z,2.23
2018-05-12T23:36:06.285Z,2.53
2018-05-12T23:38:33.734Z,2.43
2018-05-12T23:41:01.179Z,2.80
2018-05-12T23:43:28.640Z,3.23
2018-05-12T23:45:56.103Z,2.90
2018-05-12T23:48:23.568Z,3.10
2018-05-12T23:50:51.006Z,3.23
2018-05-12T23:53:18.482Z,2.87
2018-05-12T23:55:45.930Z,3.63
2018-05-12T23:58:13.413Z,3.33
